createdAt,value
2019-05-07T00:01:06.691Z,77.55
2019-05-07T00:03:36.168Z,77.47
2019-05-07T00:06:05.754Z,77.20
2019-05-07T00:08:35.277Z,76.91
2019-05-07T00:11:04.772Z,76.70
2019-05-07T00:13:34.224Z,75.93
2019-05-07T00:16:03.690Z,76.04
2019-05-07T00:18:33.177Z,75.75
2019-05-07T00:21:03.509Z,76.00
2019-05-07T00:23:33.143Z,76.21
2019-05-07T00:26:03.736Z,76.93
2019-05-07T00:28:33.182Z,77.41
2019-05-07T00:31:03.015Z,77.20
2019-05-07T00:33:33.620Z,76.90
2019-05-07T00:36:28.451Z,76.37
2019-05-07T00:39:12.401Z,76.68
2019-05-07T00:41:52.226Z,76.89
2019-05-07T00:44:22.335Z,77.00
2019-05-07T00:46:53.538Z,75.89
2019-05-07T00:49:25.063Z,76.11
2019-05-07T00:51:54.521Z,76.19
2019-05-07T00:54:24.001Z,76.45
2019-05-07T00:56:53.507Z,75.41
2019-05-07T00:59:22.971Z,75.19
2019-05-07T01:01:52.894Z,75.61
2019-05-07T01:04:23.050Z,75.07
2019-05-07T01:06:53.554Z,75.33
2019-05-07T01:09:23.115Z,75.60
2019-05-07T01:11:52.670Z,75.41
2019-05-07T01:14:22.887Z,74.06
2019-05-07T01:16:53.014Z,73.99
2019-05-07T01:19:22.505Z,73.96
2019-05-07T01:21:52.595Z,73.87
2019-05-07T01:24:23.235Z,73.76
2019-05-07T01:26:53.154Z,73.72
2019-05-07T01:29:22.758Z,73.82
2019-05-07T01:31:58.308Z,73.44
2019-05-07T01:34:43.027Z,73.82
2019-05-07T01:37:12.599Z,73.62
2019-05-07T01:39:42.276Z,74.27
2019-05-07T01:42:12.776Z,73.15
2019-05-07T01:44:42.339Z,73.32
2019-05-07T01:47:13.044Z,73.05
2019-05-07T01:49:42.694Z,73.16
2019-05-07T01:52:13.324Z,72.50
2019-05-07T01:54:43.114Z,72.45
2019-05-07T01:57:12.582Z,71.84
2019-05-07T01:59:42.761Z,72.56
2019-05-07T02:02:34.086Z,72.11
2019-05-07T02:05:15.324Z,71.94
2019-05-07T02:07:52.144Z,72.30
2019-05-07T02:10:39.443Z,72.91
2019-05-07T02:13:08.928Z,73.21
2019-05-07T02:15:38.405Z,73.05
2019-05-07T02:18:07.912Z,72.93
2019-05-07T02:20:37.739Z,73.08
2019-05-07T02:23:07.230Z,72.58
2019-05-07T02:25:36.720Z,72.18
2019-05-07T02:28:06.192Z,72.27
2019-05-07T02:30:35.640Z,72.64
2019-05-07T02:33:05.103Z,72.50
2019-05-07T02:35:34.621Z,72.85
2019-05-07T02:38:18.444Z,73.39
2019-05-07T02:40:53.470Z,73.74
2019-05-07T02:43:23.331Z,73.31
2019-05-07T02:46:21.448Z,73.33
2019-05-07T02:48:42.591Z,73.00
2019-05-07T02:51:23.964Z,73.21
2019-05-07T02:54:13.353Z,73.05
2019-05-07T02:56:43.424Z,72.85
2019-05-07T02:59:13.696Z,72.58
2019-05-07T03:01:43.694Z,73.27
2019-05-07T03:04:13.227Z,73.98
2019-05-07T03:06:44.273Z,74.89
2019-05-07T03:09:14.777Z,76.36
2019-05-07T03:11:44.340Z,76.69
2019-05-07T03:14:14.339Z,76.52
2019-05-07T03:16:48.915Z,76.85
2019-05-07T03:19:15.483Z,77.09
2019-05-07T03:21:55.022Z,77.30
2019-05-07T03:24:46.941Z,77.04
2019-05-07T03:27:16.429Z,76.18
2019-05-07T03:29:53.716Z,75.50
2019-05-07T03:32:37.931Z,74.82
2019-05-07T03:35:38.303Z,74.83
2019-05-07T03:38:07.972Z,74.22
2019-05-07T03:40:37.648Z,73.63
2019-05-07T03:43:07.107Z,73.04
2019-05-07T03:45:55.529Z,73.07
2019-05-07T03:48:26.492Z,72.90
2019-05-07T03:50:55.937Z,72.55
2019-05-07T03:53:25.434Z,72.59
2019-05-07T03:55:54.937Z,72.64
2019-05-07T03:58:24.397Z,72.57
2019-05-07T04:00:54.102Z,72.63
2019-05-07T04:03:24.758Z,71.51
2019-05-07T04:05:54.625Z,71.62
2019-05-07T04:08:24.191Z,72.14
2019-05-07T04:10:54.216Z,71.64
2019-05-07T04:13:24.543Z,71.98
2019-05-07T04:15:54.278Z,70.44
2019-05-07T04:18:24.106Z,70.07
2019-05-07T04:20:54.145Z,69.41
2019-05-07T04:23:23.842Z,69.38
2019-05-07T04:26:15.793Z,68.39
2019-05-07T04:28:54.131Z,68.18
2019-05-07T04:31:25.611Z,68.29
2019-05-07T04:33:56.939Z,68.36
2019-05-07T04:36:28.772Z,68.46
2019-05-07T04:38:58.284Z,68.53
2019-05-07T04:41:27.778Z,69.27
2019-05-07T04:44:03.447Z,68.03
2019-05-07T04:46:33.405Z,68.10
2019-05-07T04:49:03.908Z,68.12
2019-05-07T04:51:53.125Z,68.46
2019-05-07T04:54:23.753Z,68.49
2019-05-07T04:56:53.591Z,68.65
2019-05-07T04:59:23.768Z,68.36
2019-05-07T05:02:06.955Z,68.00
2019-05-07T05:04:36.428Z,68.47
2019-05-07T05:07:05.914Z,67.60
2019-05-07T05:09:35.385Z,67.94
2019-05-07T05:12:04.898Z,68.07
2019-05-07T05:14:34.365Z,68.42
2019-05-07T05:17:03.868Z,67.97
2019-05-07T05:19:33.355Z,67.38
2019-05-07T05:22:24.879Z,67.01
2019-05-07T05:25:28.357Z,67.59
2019-05-07T05:27:57.841Z,66.97
2019-05-07T05:30:45.804Z,67.24
2019-05-07T05:33:15.367Z,66.60
2019-05-07T05:35:44.945Z,65.78
2019-05-07T05:38:14.442Z,65.94
2019-05-07T05:40:43.950Z,65.87
2019-05-07T05:43:23.343Z,65.56
2019-05-07T05:45:54.519Z,66.16
2019-05-07T05:48:24.060Z,66.85
2019-05-07T05:51:15.557Z,67.73
2019-05-07T05:53:52.946Z,68.28
2019-05-07T05:56:32.406Z,68.95
2019-05-07T05:59:47.422Z,69.18
2019-05-07T06:02:32.547Z,69.28
2019-05-07T06:05:36.101Z,69.11
2019-05-07T06:08:32.575Z,68.74
2019-05-07T06:11:23.715Z,68.33
2019-05-07T06:14:02.725Z,67.64
2019-05-07T06:16:36.800Z,66.91
2019-05-07T06:19:17.504Z,67.71
2019-05-07T06:22:04.754Z,66.55
2019-05-07T06:24:48.036Z,66.59
2019-05-07T06:27:17.519Z,66.10
2019-05-07T06:29:46.985Z,66.80
2019-05-07T06:32:18.160Z,67.35
2019-05-07T06:34:47.646Z,67.42
2019-05-07T06:37:17.221Z,66.71
2019-05-07T06:39:53.445Z,66.69
2019-05-07T06:43:00.205Z,66.49
2019-05-07T06:45:35.315Z,66.39
2019-05-07T06:48:04.387Z,66.52
2019-05-07T06:50:33.901Z,66.47
2019-05-07T06:53:03.362Z,67.12
2019-05-07T06:55:32.973Z,67.12
2019-05-07T06:58:03.148Z,66.88
2019-05-07T07:00:52.620Z,66.94
2019-05-07T07:03:41.983Z,65.43
2019-05-07T07:06:20.373Z,66.20
2019-05-07T07:09:08.791Z,66.40
2019-05-07T07:11:44.513Z,66.76
2019-05-07T07:14:14.016Z,66.29
2019-05-07T07:16:43.906Z,66.63
2019-05-07T07:19:13.384Z,66.78
2019-05-07T07:21:42.865Z,66.85
2019-05-07T07:24:12.782Z,67.27
2019-05-07T07:26:42.399Z,67.96
2019-05-07T07:29:13.678Z,67.00
2019-05-07T07:31:48.025Z,66.73
2019-05-07T07:34:17.810Z,67.00
2019-05-07T07:37:09.758Z,67.27
2019-05-07T07:39:36.321Z,67.18
2019-05-07T07:42:06.472Z,67.55
2019-05-07T07:44:35.992Z,67.26
2019-05-07T07:47:05.566Z,67.43
2019-05-07T07:49:35.067Z,65.93
2019-05-07T07:52:04.664Z,65.61
2019-05-07T07:54:34.205Z,65.36
2019-05-07T07:57:21.693Z,66.03
2019-05-07T08:00:11.796Z,66.17
2019-05-07T08:02:47.153Z,66.04
2019-05-07T08:05:16.639Z,65.97
2019-05-07T08:07:46.114Z,66.54
2019-05-07T08:10:15.840Z,66.32
2019-05-07T08:12:45.721Z,65.26
2019-05-07T08:15:20.875Z,64.87
2019-05-07T08:17:46.465Z,65.18
2019-05-07T08:20:16.448Z,65.15
2019-05-07T08:22:45.955Z,64.84
2019-05-07T08:25:15.854Z,64.63
2019-05-07T08:27:45.381Z,64.75
2019-05-07T08:30:19.121Z,64.71
2019-05-07T08:33:02.254Z,64.63
2019-05-07T08:35:41.999Z,64.36
2019-05-07T08:38:12.742Z,64.43
2019-05-07T08:40:42.547Z,63.95
2019-05-07T08:43:12.677Z,64.97
2019-05-07T08:46:11.972Z,64.23
2019-05-07T08:48:45.391Z,64.35
2019-05-07T08:51:14.853Z,64.44
2019-05-07T08:53:44.342Z,65.53
2019-05-07T08:56:13.907Z,65.61
2019-05-07T08:58:43.656Z,64.63
2019-05-07T09:01:13.156Z,64.67
2019-05-07T09:03:43.159Z,64.49
2019-05-07T09:06:14.272Z,63.83
2019-05-07T09:08:43.807Z,64.08
2019-05-07T09:11:13.512Z,64.38
2019-05-07T09:13:43.024Z,64.26
2019-05-07T09:16:13.084Z,63.86
2019-05-07T09:18:42.678Z,63.53
2019-05-07T09:21:12.669Z,63.28
2019-05-07T09:23:42.581Z,63.89
2019-05-07T09:26:14.199Z,64.79
2019-05-07T09:29:05.326Z,65.26
2019-05-07T09:31:53.763Z,65.71
2019-05-07T09:34:24.501Z,66.40
2019-05-07T09:36:55.700Z,66.48
2019-05-07T09:39:25.181Z,66.33
2019-05-07T09:41:54.671Z,66.15
2019-05-07T09:44:24.189Z,66.14
2019-05-07T09:46:53.680Z,66.69
2019-05-07T09:49:23.147Z,67.23
2019-05-07T09:51:52.614Z,66.99
2019-05-07T09:54:23.083Z,66.34
2019-05-07T09:56:52.662Z,66.01
2019-05-07T09:59:22.229Z,66.09
2019-05-07T10:01:51.943Z,65.58
2019-05-07T10:04:22.423Z,65.77
2019-05-07T10:06:52.036Z,65.87
2019-05-07T10:09:22.293Z,65.21
2019-05-07T10:12:12.182Z,65.52
2019-05-07T10:14:42.100Z,65.20
2019-05-07T10:17:17.377Z,65.49
2019-05-07T10:19:47.639Z,65.65
2019-05-07T10:22:17.109Z,65.79
2019-05-07T10:24:46.573Z,66.22
2019-05-07T10:27:16.185Z,65.72
2019-05-07T10:29:46.282Z,65.68
2019-05-07T10:32:15.752Z,65.97
2019-05-07T10:34:45.383Z,66.04
2019-05-07T10:37:14.887Z,66.11
2019-05-07T10:39:44.401Z,65.61
2019-05-07T10:42:13.890Z,65.92
2019-05-07T10:44:49.540Z,65.72
2019-05-07T10:47:44.016Z,66.25
2019-05-07T10:50:33.094Z,65.86
2019-05-07T10:52:52.811Z,66.47
2019-05-07T10:55:22.646Z,66.15
2019-05-07T10:57:52.837Z,65.50
2019-05-07T11:00:25.786Z,65.44
2019-05-07T11:02:55.306Z,65.99
2019-05-07T11:05:24.782Z,66.27
2019-05-07T11:07:54.412Z,66.40
2019-05-07T11:10:23.944Z,66.31
2019-05-07T11:12:53.432Z,66.72
2019-05-07T11:15:23.373Z,66.55
2019-05-07T11:18:02.719Z,66.67
2019-05-07T11:20:32.342Z,66.26
2019-05-07T11:23:02.609Z,66.72
2019-05-07T11:25:32.348Z,67.44
2019-05-07T11:28:02.827Z,68.15
2019-05-07T11:30:32.500Z,68.39
2019-05-07T11:33:02.734Z,69.28
2019-05-07T11:35:32.338Z,70.00
2019-05-07T11:38:16.782Z,70.50
2019-05-07T11:40:34.802Z,70.01
2019-05-07T11:43:23.662Z,70.11
2019-05-07T11:46:13.048Z,70.56
2019-05-07T11:48:52.244Z,70.94
2019-05-07T11:51:33.426Z,71.30
2019-05-07T11:54:13.651Z,71.42
2019-05-07T11:56:43.225Z,72.16
2019-05-07T11:59:13.575Z,71.30
2019-05-07T12:01:49.717Z,70.92
2019-05-07T12:04:19.392Z,70.71
2019-05-07T12:06:48.926Z,71.31
2019-05-07T12:09:18.468Z,71.78
2019-05-07T12:11:47.945Z,72.03
2019-05-07T12:14:28.150Z,72.55
2019-05-07T12:16:48.677Z,72.20
2019-05-07T12:19:18.192Z,72.24
2019-05-07T12:21:47.709Z,72.43
2019-05-07T12:24:17.269Z,72.41
2019-05-07T12:26:46.815Z,72.32
2019-05-07T12:29:16.322Z,72.07
2019-05-07T12:31:55.808Z,71.80
2019-05-07T12:34:50.102Z,72.67
2019-05-07T12:37:19.602Z,73.06
2019-05-07T12:39:49.125Z,73.33
2019-05-07T12:42:18.648Z,73.40
2019-05-07T12:44:48.178Z,73.03
2019-05-07T12:47:18.377Z,73.08
2019-05-07T12:49:47.939Z,73.23
2019-05-07T12:52:24.589Z,72.82
2019-05-07T12:55:12.000Z,73.32
2019-05-07T12:57:42.100Z,73.70
2019-05-07T13:00:32.190Z,73.70
2019-05-07T13:03:26.020Z,73.99
2019-05-07T13:05:55.573Z,74.11
2019-05-07T13:08:25.075Z,74.00
2019-05-07T13:10:54.555Z,74.09
2019-05-07T13:13:24.075Z,74.01
2019-05-07T13:15:53.552Z,74.18
2019-05-07T13:18:23.078Z,73.65
2019-05-07T13:20:52.623Z,74.23
2019-05-07T13:23:22.560Z,73.54
2019-05-07T13:25:52.504Z,73.96
2019-05-07T13:28:22.007Z,73.80
2019-05-07T13:30:52.622Z,72.95
2019-05-07T13:33:22.946Z,73.48
2019-05-07T13:35:53.201Z,73.73
2019-05-07T13:38:42.665Z,73.15
2019-05-07T13:41:31.207Z,73.91
2019-05-07T13:44:26.301Z,73.46
2019-05-07T13:47:15.140Z,73.81
2019-05-07T13:49:45.189Z,73.88
2019-05-07T13:52:16.189Z,74.60
2019-05-07T13:54:45.773Z,74.80
2019-05-07T13:57:15.560Z,75.50
2019-05-07T13:59:45.391Z,76.22
2019-05-07T14:02:17.549Z,76.27
2019-05-07T14:04:47.072Z,76.57
2019-05-07T14:07:16.977Z,77.09
2019-05-07T14:09:46.513Z,77.01
2019-05-07T14:12:16.216Z,77.13
2019-05-07T14:14:46.385Z,76.77
2019-05-07T14:17:15.888Z,76.43
2019-05-07T14:19:45.418Z,76.85
2019-05-07T14:22:18.852Z,77.04
2019-05-07T14:24:46.165Z,77.44
2019-05-07T14:27:15.799Z,77.46
2019-05-07T14:29:45.375Z,76.54
2019-05-07T14:32:24.043Z,76.50
2019-05-07T14:35:07.125Z,76.28
2019-05-07T14:37:42.697Z,75.84
2019-05-07T14:40:13.105Z,75.79
2019-05-07T14:42:47.320Z,76.13
2019-05-07T14:45:16.821Z,76.36
2019-05-07T14:47:46.469Z,76.38
2019-05-07T14:50:16.327Z,76.71
2019-05-07T14:52:45.920Z,77.12
2019-05-07T14:55:15.412Z,77.49
2019-05-07T14:57:44.949Z,77.31
2019-05-07T15:00:15.326Z,77.11
2019-05-07T15:02:44.802Z,77.60
2019-05-07T15:05:14.525Z,77.88
2019-05-07T15:07:44.134Z,78.19
2019-05-07T15:10:13.730Z,78.38
2019-05-07T15:12:43.458Z,78.09
2019-05-07T15:15:13.147Z,78.46
2019-05-07T15:17:48.720Z,78.15
2019-05-07T15:20:18.300Z,77.87
2019-05-07T15:23:11.944Z,77.69
2019-05-07T15:25:41.990Z,77.95
2019-05-07T15:28:12.270Z,77.85
2019-05-07T15:30:54.274Z,77.77
2019-05-07T15:33:23.932Z,77.63
2019-05-07T15:35:53.457Z,77.20
2019-05-07T15:38:22.938Z,76.70
2019-05-07T15:40:52.548Z,76.55
2019-05-07T15:43:22.131Z,76.67
2019-05-07T15:45:52.444Z,76.37
2019-05-07T15:48:22.138Z,75.78
2019-05-07T15:50:52.081Z,75.49
2019-05-07T15:53:25.987Z,75.68
2019-05-07T15:55:55.481Z,74.97
2019-05-07T15:58:25.004Z,74.64
2019-05-07T16:00:54.504Z,74.28
2019-05-07T16:03:32.795Z,74.28
2019-05-07T16:06:03.845Z,74.05
2019-05-07T16:08:36.907Z,73.62
2019-05-07T16:11:06.444Z,73.12
2019-05-07T16:13:38.349Z,73.15
2019-05-07T16:16:07.881Z,73.04
2019-05-07T16:18:56.303Z,72.74
2019-05-07T16:21:25.804Z,73.05
2019-05-07T16:23:55.365Z,73.06
2019-05-07T16:26:24.837Z,72.94
2019-05-07T16:28:54.340Z,73.04
2019-05-07T16:31:24.651Z,72.98
2019-05-07T16:33:54.431Z,72.95
2019-05-07T16:36:23.957Z,72.73
2019-05-07T16:38:53.452Z,72.58
2019-05-07T16:41:22.987Z,72.46
2019-05-07T16:43:52.544Z,72.55
2019-05-07T16:46:22.519Z,72.90
2019-05-07T16:48:52.156Z,73.01
2019-05-07T16:51:22.305Z,73.10
2019-05-07T16:53:52.534Z,73.22
2019-05-07T16:56:22.703Z,73.22
2019-05-07T16:59:02.311Z,73.46
2019-05-07T17:01:32.554Z,73.28
2019-05-07T17:04:02.863Z,73.52
2019-05-07T17:06:32.598Z,73.07
2019-05-07T17:09:10.253Z,73.51
2019-05-07T17:11:40.072Z,73.51
2019-05-07T17:14:09.601Z,73.84
2019-05-07T17:16:40.025Z,73.67
2019-05-07T17:19:11.837Z,73.80
2019-05-07T17:21:43.134Z,73.83
2019-05-07T17:24:12.779Z,73.79
2019-05-07T17:26:42.511Z,73.94
2019-05-07T17:29:12.180Z,73.61
2019-05-07T17:31:42.458Z,73.62
2019-05-07T17:34:12.210Z,73.35
2019-05-07T17:36:42.321Z,73.33
2019-05-07T17:39:12.353Z,73.53
2019-05-07T17:41:43.038Z,72.63
2019-05-07T17:44:12.640Z,72.28
2019-05-07T17:46:42.895Z,72.15
2019-05-07T17:49:13.407Z,72.14
2019-05-07T17:51:46.370Z,71.75
2019-05-07T17:54:15.883Z,71.70
2019-05-07T17:56:45.527Z,71.52
2019-05-07T17:59:15.059Z,71.53
2019-05-07T18:02:02.180Z,71.26
2019-05-07T18:04:47.650Z,71.42
2019-05-07T18:07:05.296Z,71.33
2019-05-07T18:09:36.884Z,71.01
2019-05-07T18:12:06.436Z,71.06
2019-05-07T18:14:36.305Z,70.69
2019-05-07T18:17:14.393Z,70.67
2019-05-07T18:19:45.674Z,70.26
2019-05-07T18:22:15.202Z,70.49
2019-05-07T18:24:46.829Z,70.55
2019-05-07T18:27:25.900Z,69.65
2019-05-07T18:29:55.380Z,69.87
2019-05-07T18:32:32.388Z,69.78
2019-05-07T18:35:02.429Z,69.78
2019-05-07T18:37:32.657Z,69.61
2019-05-07T18:40:02.629Z,69.56
2019-05-07T18:42:32.814Z,69.49
2019-05-07T18:45:02.320Z,69.39
2019-05-07T18:47:33.144Z,69.16
2019-05-07T18:50:04.433Z,69.41
2019-05-07T18:52:33.924Z,69.22
2019-05-07T18:55:03.418Z,69.28
2019-05-07T18:57:32.949Z,69.36
2019-05-07T19:00:05.180Z,69.32
2019-05-07T19:02:33.780Z,69.33
2019-05-07T19:05:03.448Z,68.75
2019-05-07T19:07:32.929Z,68.80
2019-05-07T19:10:02.805Z,68.71
2019-05-07T19:12:34.090Z,68.21
2019-05-07T19:15:03.859Z,68.14
2019-05-07T19:17:33.551Z,68.24
2019-05-07T19:20:03.493Z,68.08
2019-05-07T19:22:33.251Z,68.25
2019-05-07T19:25:03.181Z,68.29
2019-05-07T19:27:32.924Z,68.60
2019-05-07T19:30:02.478Z,68.63
2019-05-07T19:32:32.403Z,68.30
2019-05-07T19:35:04.302Z,68.18
2019-05-07T19:37:33.880Z,68.48
2019-05-07T19:40:03.398Z,68.44
2019-05-07T19:42:32.915Z,68.60
2019-05-07T19:45:02.767Z,68.26
2019-05-07T19:47:32.814Z,68.18
2019-05-07T19:50:02.444Z,68.49
2019-05-07T19:52:33.187Z,68.66
2019-05-07T19:55:04.856Z,68.78
2019-05-07T19:57:39.173Z,68.46
2019-05-07T20:00:09.292Z,68.38
2019-05-07T20:02:43.814Z,68.46
2019-05-07T20:05:13.427Z,68.59
2019-05-07T20:07:42.973Z,68.55
2019-05-07T20:10:14.494Z,68.17
2019-05-07T20:12:44.017Z,68.55
2019-05-07T20:15:13.828Z,68.95
2019-05-07T20:17:43.345Z,68.60
2019-05-07T20:20:13.715Z,68.42
2019-05-07T20:22:43.286Z,68.68
2019-05-07T20:25:18.780Z,68.50
2019-05-07T20:27:43.986Z,68.73
2019-05-07T20:30:13.486Z,68.50
2019-05-07T20:32:42.955Z,68.26
2019-05-07T20:35:13.265Z,68.08
2019-05-07T20:37:42.731Z,68.05
2019-05-07T20:40:12.501Z,67.79
2019-05-07T20:42:42.807Z,67.54
2019-05-07T20:45:12.481Z,67.42
2019-05-07T20:47:42.238Z,67.51
2019-05-07T20:50:12.715Z,67.42
2019-05-07T20:52:42.370Z,67.64
2019-05-07T20:55:30.848Z,67.83
2019-05-07T20:57:58.284Z,67.72
2019-05-07T21:00:28.669Z,67.45
2019-05-07T21:03:23.397Z,67.73
2019-05-07T21:05:53.231Z,68.00
2019-05-07T21:08:23.112Z,68.09
2019-05-07T21:10:53.759Z,67.60
2019-05-07T21:13:30.396Z,67.59
2019-05-07T21:15:54.854Z,67.21
2019-05-07T21:18:24.357Z,67.51
2019-05-07T21:20:53.871Z,67.17
2019-05-07T21:23:23.490Z,66.87
2019-05-07T21:25:53.280Z,66.69
2019-05-07T21:28:22.882Z,66.88
2019-05-07T21:30:52.503Z,66.98
2019-05-07T21:33:22.856Z,66.55
2019-05-07T21:35:52.660Z,66.64
2019-05-07T21:38:24.148Z,66.52
2019-05-07T21:40:53.694Z,66.72
2019-05-07T21:43:23.162Z,66.56
2019-05-07T21:45:53.120Z,66.73
2019-05-07T21:48:22.754Z,66.95
2019-05-07T21:50:52.617Z,66.41
2019-05-07T21:53:32.360Z,66.62
2019-05-07T21:56:16.256Z,66.37
2019-05-07T21:58:53.924Z,66.16
2019-05-07T22:01:32.579Z,65.99
2019-05-07T22:04:01.973Z,66.00
2019-05-07T22:06:31.681Z,65.85
2019-05-07T22:09:01.984Z,65.91
2019-05-07T22:11:32.325Z,65.81
2019-05-07T22:14:02.236Z,65.93
2019-05-07T22:16:32.877Z,65.84
2019-05-07T22:19:02.737Z,66.16
2019-05-07T22:21:34.303Z,66.41
2019-05-07T22:24:03.604Z,66.37
2019-05-07T22:26:33.079Z,66.53
2019-05-07T22:29:03.207Z,66.46
2019-05-07T22:31:44.244Z,66.55
2019-05-07T22:34:27.712Z,66.86
2019-05-07T22:36:57.211Z,66.76
2019-05-07T22:39:26.889Z,66.80
2019-05-07T22:41:56.408Z,67.07
2019-05-07T22:44:26.472Z,67.20
2019-05-07T22:46:57.986Z,67.19
2019-05-07T22:49:27.452Z,67.15
2019-05-07T22:51:56.921Z,67.48
2019-05-07T22:54:26.466Z,67.32
2019-05-07T22:57:14.613Z,67.46
2019-05-07T22:59:44.073Z,67.50
2019-05-07T23:02:13.572Z,67.64
2019-05-07T23:04:43.269Z,67.76
2019-05-07T23:07:12.883Z,67.84
2019-05-07T23:09:44.867Z,68.17
2019-05-07T23:12:13.629Z,68.16
2019-05-07T23:14:43.095Z,68.12
2019-05-07T23:17:12.711Z,68.03
2019-05-07T23:19:42.177Z,68.08
2019-05-07T23:22:13.535Z,68.26
2019-05-07T23:24:42.926Z,68.49
2019-05-07T23:27:14.794Z,68.48
2019-05-07T23:29:43.966Z,68.52
2019-05-07T23:32:13.811Z,68.80
2019-05-07T23:34:43.295Z,69.05
2019-05-07T23:37:12.795Z,68.82
2019-05-07T23:39:43.948Z,68.98
2019-05-07T23:42:17.295Z,69.02
2019-05-07T23:44:46.786Z,68.78
2019-05-07T23:47:16.284Z,68.69
2019-05-07T23:49:45.794Z,68.80
2019-05-07T23:52:15.289Z,68.93
2019-05-07T23:54:44.792Z,68.75
2019-05-07T23:57:15.427Z,68.50
2019-05-07T23:59:45.049Z,68.46
